CPE8 weather

Oakville (Trafalgar Memorial Hospital) Heliport
Oakville, Ontario, Canada

Public forecast

Using degrees Celsius for public forecast. Weather courtesy of forecast.io.

Closest aviation weather report (METAR) to Oakville (Trafalgar Memorial Hospital) Heliport

Closest report is Lester B. Pearson International Airport, 12.3 nm (22.8 km) N. Retrieved 2020/06/03 05:00 UTC (20 minutes ago):

CYYZ 030500Z 01004KT 10SM SCT060 15/14 A2967 RMK SC4 SLP048 DENSITY ALT 1100FT

Closest aviation forecast (TAF) to Oakville (Trafalgar Memorial Hospital) Heliport

Closest forecast is Lester B. Pearson International Airport, 12.3 nm (22.8 km) N. Retrieved 2020-06-03 03:42 UTC (2 hours ago):

TAF TAF CYYZ 030240Z 0303/0406 VRB15G30KT 6SM -SHRA BKN050 BKN100 TEMPO 0303/0304 1SM +TSRA BR OVC020CB FM030310 VRB03KT P6SM FEW020 SCT070 FM030900 VRB03KT P6SM SCT060 BKN120 FM031100 VRB03KT P6SM BKN100 PROB30 0311/0314 2SM TSRA BKN060CB FM031400 27010KT P6SM BKN080 TEMPO 0319/0323 27010KT P6SM -SHRA BKN080 FM040000 32010KT P6SM SCT080 FM040300 33008KT P6SM SKC RMK NXT FCST BY 030600Z